sensor_id;sensor_type;location;lat;lon;timestamp;pressure;altitude;pressure_sealevel;temperature;humidity
32298;BME280;18782;48.984;8.548;2023-05-22T00:00:08;99512.16;;;15.29;97.62
32298;BME280;18782;48.984;8.548;2023-05-22T00:02:37;99510.44;;;15.31;97.52
32298;BME280;18782;48.984;8.548;2023-05-22T00:05:09;99508.72;;;15.24;97.56
32298;BME280;18782;48.984;8.548;2023-05-22T00:07:37;99508.72;;;15.21;97.81
32298;BME280;18782;48.984;8.548;2023-05-22T00:10:06;99506.16;;;15.20;97.80
32298;BME280;18782;48.984;8.548;2023-05-22T00:12:35;99513.94;;;15.15;97.75
32298;BME280;18782;48.984;8.548;2023-05-22T00:15:03;99512.22;;;15.09;97.80
32298;BME280;18782;48.984;8.548;2023-05-22T00:17:31;99507.00;;;15.08;97.98
32298;BME280;18782;48.984;8.548;2023-05-22T00:19:59;99512.19;;;15.08;98.02
32298;BME280;18782;48.984;8.548;2023-05-22T00:22:33;99501.81;;;15.08;98.30
32298;BME280;18782;48.984;8.548;2023-05-22T00:25:01;99513.94;;;15.06;98.05
32298;BME280;18782;48.984;8.548;2023-05-22T00:27:30;99500.97;;;15.06;97.97
32298;BME280;18782;48.984;8.548;2023-05-22T00:29:59;99505.28;;;15.07;98.04
32298;BME280;18782;48.984;8.548;2023-05-22T00:32:27;99505.31;;;15.04;97.85
32298;BME280;18782;48.984;8.548;2023-05-22T00:34:55;99505.31;;;15.04;97.66
32298;BME280;18782;48.984;8.548;2023-05-22T00:37:22;99506.13;;;15.03;97.80
32298;BME280;18782;48.984;8.548;2023-05-22T00:39:50;99509.63;;;15.00;97.63
32298;BME280;18782;48.984;8.548;2023-05-22T00:42:18;99509.59;;;14.97;97.39
32298;BME280;18782;48.984;8.548;2023-05-22T00:44:46;99508.75;;;14.97;97.84
32298;BME280;18782;48.984;8.548;2023-05-22T00:47:16;99506.16;;;14.98;97.81
32298;BME280;18782;48.984;8.548;2023-05-22T00:49:44;99501.84;;;14.96;97.60
32298;BME280;18782;48.984;8.548;2023-05-22T00:52:13;99500.97;;;14.92;97.48
32298;BME280;18782;48.984;8.548;2023-05-22T00:54:41;99494.91;;;14.92;97.84
32298;BME280;18782;48.984;8.548;2023-05-22T00:57:10;99499.25;;;14.86;98.07
32298;BME280;18782;48.984;8.548;2023-05-22T00:59:38;99505.28;;;14.82;98.06
32298;BME280;18782;48.984;8.548;2023-05-22T01:02:06;99500.97;;;14.81;97.92
32298;BME280;18782;48.984;8.548;2023-05-22T01:04:36;99504.44;;;14.80;98.07
32298;BME280;18782;48.984;8.548;2023-05-22T01:07:04;99506.16;;;14.80;98.01
32298;BME280;18782;48.984;8.548;2023-05-22T01:09:32;99511.34;;;14.81;97.81
32298;BME280;18782;48.984;8.548;2023-05-22T01:12:06;99501.84;;;14.80;98.08
32298;BME280;18782;48.984;8.548;2023-05-22T01:14:44;99507.03;;;14.80;97.72
32298;BME280;18782;48.984;8.548;2023-05-22T01:17:18;99501.84;;;14.80;97.45
32298;BME280;18782;48.984;8.548;2023-05-22T01:20:00;99507.88;;;14.75;97.64
32298;BME280;18782;48.984;8.548;2023-05-22T01:26:02;99512.19;;;14.68;97.79
32298;BME280;18782;48.984;8.548;2023-05-22T01:28:41;99507.88;;;14.64;97.79
32298;BME280;18782;48.984;8.548;2023-05-22T01:31:23;99505.28;;;14.58;97.98
32298;BME280;18782;48.984;8.548;2023-05-22T01:33:54;99506.16;;;14.57;97.93
32298;BME280;18782;48.984;8.548;2023-05-22T01:36:26;99523.41;;;14.55;98.03
32298;BME280;18782;48.984;8.548;2023-05-22T01:38:55;99510.47;;;14.53;98.52
32298;BME280;18782;48.984;8.548;2023-05-22T01:41:24;99516.50;;;14.55;98.46
32298;BME280;18782;48.984;8.548;2023-05-22T01:43:52;99517.34;;;14.56;98.00
32298;BME280;18782;48.984;8.548;2023-05-22T01:46:24;99519.09;;;14.54;97.54
32298;BME280;18782;48.984;8.548;2023-05-22T01:48:52;99516.47;;;14.51;97.54
32298;BME280;18782;48.984;8.548;2023-05-22T01:51:25;99525.13;;;14.50;97.54
32298;BME280;18782;48.984;8.548;2023-05-22T01:53:59;99525.97;;;14.49;97.90
32298;BME280;18782;48.984;8.548;2023-05-22T01:56:38;99524.25;;;14.48;97.93
32298;BME280;18782;48.984;8.548;2023-05-22T01:59:13;99525.94;;;14.43;98.10
32298;BME280;18782;48.984;8.548;2023-05-22T02:01:49;99530.22;;;14.41;97.89
32298;BME280;18782;48.984;8.548;2023-05-22T02:08:25;99534.53;;;14.26;97.88
32298;BME280;18782;48.984;8.548;2023-05-22T02:10:54;99537.97;;;14.21;97.96
32298;BME280;18782;48.984;8.548;2023-05-22T02:13:23;99533.63;;;14.18;97.99
32298;BME280;18782;48.984;8.548;2023-05-22T02:15:51;99540.53;;;14.12;98.48
32298;BME280;18782;48.984;8.548;2023-05-22T02:18:24;99543.13;;;14.10;98.52
32298;BME280;18782;48.984;8.548;2023-05-22T02:20:54;99539.66;;;14.05;98.51
32298;BME280;18782;48.984;8.548;2023-05-22T02:23:23;99538.78;;;14.04;98.58
32298;BME280;18782;48.984;8.548;2023-05-22T02:25:50;99542.19;;;14.03;98.67
32298;BME280;18782;48.984;8.548;2023-05-22T02:28:18;99537.88;;;14.04;98.84
32298;BME280;18782;48.984;8.548;2023-05-22T02:30:46;99533.59;;;14.01;98.98
32298;BME280;18782;48.984;8.548;2023-05-22T02:33:14;99537.91;;;14.01;98.87
32298;BME280;18782;48.984;8.548;2023-05-22T02:35:44;99535.31;;;14.01;98.76
32298;BME280;18782;48.984;8.548;2023-05-22T02:38:12;99534.44;;;14.02;98.92
32298;BME280;18782;48.984;8.548;2023-05-22T02:40:40;99536.16;;;14.00;98.69
32298;BME280;18782;48.984;8.548;2023-05-22T02:43:07;99532.69;;;13.95;98.78
32298;BME280;18782;48.984;8.548;2023-05-22T02:45:35;99530.94;;;13.94;98.82
32298;BME280;18782;48.984;8.548;2023-05-22T02:48:03;99527.50;;;13.92;98.66
32298;BME280;18782;48.984;8.548;2023-05-22T02:50:31;99530.94;;;13.92;98.91
32298;BME280;18782;48.984;8.548;2023-05-22T02:53:00;99533.53;;;13.91;99.05
32298;BME280;18782;48.984;8.548;2023-05-22T02:55:28;99534.41;;;13.90;99.03
32298;BME280;18782;48.984;8.548;2023-05-22T02:57:56;99533.53;;;13.92;99.04
32298;BME280;18782;48.984;8.548;2023-05-22T03:00:23;99539.56;;;13.90;98.99
32298;BME280;18782;48.984;8.548;2023-05-22T03:02:53;99539.56;;;13.91;99.38
32298;BME280;18782;48.984;8.548;2023-05-22T03:05:21;99545.63;;;13.96;99.28
32298;BME280;18782;48.984;8.548;2023-05-22T03:07:50;99536.16;;;13.97;98.61
32298;BME280;18782;48.984;8.548;2023-05-22T03:10:19;99539.59;;;13.99;98.07
32298;BME280;18782;48.984;8.548;2023-05-22T03:12:47;99541.31;;;13.97;98.13
32298;BME280;18782;48.984;8.548;2023-05-22T03:15:17;99542.19;;;13.96;97.99
32298;BME280;18782;48.984;8.548;2023-05-22T03:17:45;99546.53;;;14.00;97.60
32298;BME280;18782;48.984;8.548;2023-05-22T03:20:14;99543.03;;;13.98;98.24
32298;BME280;18782;48.984;8.548;2023-05-22T03:22:43;99543.91;;;13.98;97.90
32298;BME280;18782;48.984;8.548;2023-05-22T03:25:11;99543.06;;;13.95;98.01
32298;BME280;18782;48.984;8.548;2023-05-22T03:27:41;99555.13;;;13.96;97.68
32298;BME280;18782;48.984;8.548;2023-05-22T03:30:09;99547.34;;;13.93;98.04
32298;BME280;18782;48.984;8.548;2023-05-22T03:32:40;99556.81;;;13.94;97.59
32298;BME280;18782;48.984;8.548;2023-05-22T03:35:08;99555.09;;;13.93;97.80
32298;BME280;18782;48.984;8.548;2023-05-22T03:37:36;99550.78;;;13.93;97.62
32298;BME280;18782;48.984;8.548;2023-05-22T03:40:05;99550.78;;;13.92;97.68
32298;BME280;18782;48.984;8.548;2023-05-22T03:42:33;99544.75;;;13.93;97.32
32298;BME280;18782;48.984;8.548;2023-05-22T03:45:03;99541.28;;;13.94;97.21
32298;BME280;18782;48.984;8.548;2023-05-22T03:47:31;99548.19;;;13.92;97.17
32298;BME280;18782;48.984;8.548;2023-05-22T03:49:58;99544.75;;;13.90;97.04
32298;BME280;18782;48.984;8.548;2023-05-22T03:52:26;99540.44;;;13.89;97.39
32298;BME280;18782;48.984;8.548;2023-05-22T03:54:54;99542.13;;;13.88;97.25
32298;BME280;18782;48.984;8.548;2023-05-22T03:57:22;99546.47;;;13.91;97.23
32298;BME280;18782;48.984;8.548;2023-05-22T03:59:49;99545.63;;;13.95;97.22
32298;BME280;18782;48.984;8.548;2023-05-22T04:02:18;99534.41;;;13.90;97.10
32298;BME280;18782;48.984;8.548;2023-05-22T04:04:47;99532.69;;;13.89;97.01
32298;BME280;18782;48.984;8.548;2023-05-22T04:07:16;99534.41;;;13.90;97.22
32298;BME280;18782;48.984;8.548;2023-05-22T04:09:44;99543.91;;;13.89;97.15
32298;BME280;18782;48.984;8.548;2023-05-22T04:12:11;99542.16;;;13.90;96.90
32298;BME280;18782;48.984;8.548;2023-05-22T04:14:41;99541.31;;;13.91;97.28
32298;BME280;18782;48.984;8.548;2023-05-22T04:17:08;99547.34;;;13.93;97.34
32298;BME280;18782;48.984;8.548;2023-05-22T04:19:38;99552.53;;;13.97;97.50
32298;BME280;18782;48.984;8.548;2023-05-22T04:22:06;99545.63;;;13.98;97.11
32298;BME280;18782;48.984;8.548;2023-05-22T04:24:33;99550.81;;;14.04;96.73
32298;BME280;18782;48.984;8.548;2023-05-22T04:27:01;99556.03;;;14.05;96.48
32298;BME280;18782;48.984;8.548;2023-05-22T04:29:28;99551.72;;;14.06;96.74
32298;BME280;18782;48.984;8.548;2023-05-22T04:31:56;99550.00;;;14.08;96.51
32298;BME280;18782;48.984;8.548;2023-05-22T04:34:26;99562.09;;;14.12;96.88
32298;BME280;18782;48.984;8.548;2023-05-22T04:36:56;99562.97;;;14.19;95.74
32298;BME280;18782;48.984;8.548;2023-05-22T04:39:25;99562.09;;;14.18;95.93
32298;BME280;18782;48.984;8.548;2023-05-22T04:41:53;99563.81;;;14.10;95.75
32298;BME280;18782;48.984;8.548;2023-05-22T04:44:20;99563.81;;;14.10;95.87
32298;BME280;18782;48.984;8.548;2023-05-22T04:46:50;99563.84;;;14.18;95.78
32298;BME280;18782;48.984;8.548;2023-05-22T04:49:17;99570.75;;;14.20;95.72
32298;BME280;18782;48.984;8.548;2023-05-22T04:51:45;99569.88;;;14.18;95.86
32298;BME280;18782;48.984;8.548;2023-05-22T04:54:14;99560.41;;;14.20;95.85
32298;BME280;18782;48.984;8.548;2023-05-22T04:56:42;99558.69;;;14.28;96.05
32298;BME280;18782;48.984;8.548;2023-05-22T04:59:09;99557.88;;;14.35;95.72
32298;BME280;18782;48.984;8.548;2023-05-22T05:01:42;99558.75;;;14.44;95.42
32298;BME280;18782;48.984;8.548;2023-05-22T05:04:10;99570.00;;;14.49;95.20
32298;BME280;18782;48.984;8.548;2023-05-22T05:06:38;99566.56;;;14.51;94.97
32298;BME280;18782;48.984;8.548;2023-05-22T05:09:06;99572.63;;;14.52;95.19
32298;BME280;18782;48.984;8.548;2023-05-22T05:11:36;99570.91;;;14.57;95.03
32298;BME280;18782;48.984;8.548;2023-05-22T05:14:04;99571.75;;;14.59;95.37
32298;BME280;18782;48.984;8.548;2023-05-22T05:16:31;99571.78;;;14.64;95.35
32298;BME280;18782;48.984;8.548;2023-05-22T05:18:59;99570.94;;;14.72;95.34
32298;BME280;18782;48.984;8.548;2023-05-22T05:21:27;99570.91;;;14.77;95.38
32298;BME280;18782;48.984;8.548;2023-05-22T05:23:58;99574.38;;;14.82;95.58
32298;BME280;18782;48.984;8.548;2023-05-22T05:26:26;99572.69;;;14.88;95.28
32298;BME280;18782;48.984;8.548;2023-05-22T05:28:55;99570.97;;;14.94;95.60
32298;BME280;18782;48.984;8.548;2023-05-22T05:31:30;99572.69;;;15.04;95.33
32298;BME280;18782;48.984;8.548;2023-05-22T05:34:30;99572.69;;;15.13;95.38
32298;BME280;18782;48.984;8.548;2023-05-22T05:37:01;99572.69;;;15.22;95.15
32298;BME280;18782;48.984;8.548;2023-05-22T05:39:30;99570.94;;;15.27;95.24
32298;BME280;18782;48.984;8.548;2023-05-22T05:42:00;99567.47;;;15.37;94.90
32298;BME280;18782;48.984;8.548;2023-05-22T05:44:29;99574.38;;;15.48;94.97
32298;BME280;18782;48.984;8.548;2023-05-22T05:46:58;99575.25;;;15.56;95.05
32298;BME280;18782;48.984;8.548;2023-05-22T05:49:26;99577.88;;;15.67;94.78
32298;BME280;18782;48.984;8.548;2023-05-22T05:51:54;99576.94;;;15.80;94.34
32298;BME280;18782;48.984;8.548;2023-05-22T05:54:23;99577.78;;;15.93;93.64
32298;BME280;18782;48.984;8.548;2023-05-22T05:56:56;99579.50;;;16.00;93.13
32298;BME280;18782;48.984;8.548;2023-05-22T05:59:23;99579.47;;;16.09;93.08
32298;BME280;18782;48.984;8.548;2023-05-22T06:02:18;99577.66;;;16.23;92.66
32298;BME280;18782;48.984;8.548;2023-05-22T06:04:49;99577.63;;;16.32;91.91
32298;BME280;18782;48.984;8.548;2023-05-22T06:07:17;99584.50;;;16.38;91.76
32298;BME280;18782;48.984;8.548;2023-05-22T06:09:48;99591.38;;;16.53;91.32
32298;BME280;18782;48.984;8.548;2023-05-22T06:12:38;99596.53;;;16.62;90.83
32298;BME280;18782;48.984;8.548;2023-05-22T06:15:07;99595.63;;;16.72;90.48
32298;BME280;18782;48.984;8.548;2023-05-22T06:17:36;99593.78;;;16.89;89.67
32298;BME280;18782;48.984;8.548;2023-05-22T06:20:05;99591.06;;;17.05;89.19
32298;BME280;18782;48.984;8.548;2023-05-22T06:22:35;99592.69;;;17.21;88.92
32298;BME280;18782;48.984;8.548;2023-05-22T06:25:03;99594.25;;;17.37;88.05
32298;BME280;18782;48.984;8.548;2023-05-22T06:27:32;99589.78;;;17.53;87.62
32298;BME280;18782;48.984;8.548;2023-05-22T06:30:00;99596.59;;;17.66;86.84
32298;BME280;18782;48.984;8.548;2023-05-22T06:32:34;99593.91;;;17.79;85.83
32298;BME280;18782;48.984;8.548;2023-05-22T06:35:04;99591.13;;;17.94;84.55
32298;BME280;18782;48.984;8.548;2023-05-22T06:37:32;99593.63;;;18.05;84.39
32298;BME280;18782;48.984;8.548;2023-05-22T06:40:01;99591.75;;;18.16;84.25
32298;BME280;18782;48.984;8.548;2023-05-22T06:42:49;99594.19;;;18.30;83.85
32298;BME280;18782;48.984;8.548;2023-05-22T06:45:40;99591.41;;;18.43;83.63
32298;BME280;18782;48.984;8.548;2023-05-22T06:48:32;99593.81;;;18.59;83.11
32298;BME280;18782;48.984;8.548;2023-05-22T06:51:24;99591.06;;;18.71;82.93
32298;BME280;18782;48.984;8.548;2023-05-22T06:54:05;99592.66;;;18.81;82.87
32298;BME280;18782;48.984;8.548;2023-05-22T06:56:35;99587.31;;;18.90;82.56
32298;BME280;18782;48.984;8.548;2023-05-22T06:59:06;99591.53;;;18.97;82.46
32298;BME280;18782;48.984;8.548;2023-05-22T07:01:52;99602.66;;;19.09;82.42
32298;BME280;18782;48.984;8.548;2023-05-22T07:04:30;99602.56;;;19.15;81.30
32298;BME280;18782;48.984;8.548;2023-05-22T07:07:01;99591.94;;;19.27;81.75
32298;BME280;18782;48.984;8.548;2023-05-22T07:09:29;99603.97;;;19.37;81.25
32298;BME280;18782;48.984;8.548;2023-05-22T07:11:57;99603.72;;;19.49;79.15
32298;BME280;18782;48.984;8.548;2023-05-22T07:14:24;99612.38;;;19.51;77.86
32298;BME280;18782;48.984;8.548;2023-05-22T07:16:52;99610.47;;;19.63;77.65
32298;BME280;18782;48.984;8.548;2023-05-22T07:19:25;99605.06;;;19.75;77.70
32298;BME280;18782;48.984;8.548;2023-05-22T07:21:56;99605.72;;;19.86;77.66
32298;BME280;18782;48.984;8.548;2023-05-22T07:24:27;99616.81;;;19.97;77.08
32298;BME280;18782;48.984;8.548;2023-05-22T07:26:54;99617.53;;;20.05;76.84
32298;BME280;18782;48.984;8.548;2023-05-22T07:29:22;99626.16;;;20.11;75.45
32298;BME280;18782;48.984;8.548;2023-05-22T07:31:52;99616.22;;;20.28;75.96
32298;BME280;18782;48.984;8.548;2023-05-22T07:34:23;99612.66;;;20.32;74.46
32298;BME280;18782;48.984;8.548;2023-05-22T07:36:57;99619.03;;;20.61;74.31
32298;BME280;18782;48.984;8.548;2023-05-22T07:39:26;99616.78;;;20.84;73.00
32298;BME280;18782;48.984;8.548;2023-05-22T07:41:54;99614.84;;;20.92;73.25
32298;BME280;18782;48.984;8.548;2023-05-22T07:44:25;99617.94;;;21.09;72.73
32298;BME280;18782;48.984;8.548;2023-05-22T07:46:54;99621.00;;;21.27;71.39
32298;BME280;18782;48.984;8.548;2023-05-22T07:49:24;99613.16;;;21.27;70.82
32298;BME280;18782;48.984;8.548;2023-05-22T07:51:52;99615.44;;;21.42;70.67
32298;BME280;18782;48.984;8.548;2023-05-22T07:54:22;99618.00;;;21.44;70.71
32298;BME280;18782;48.984;8.548;2023-05-22T07:56:52;99613.47;;;21.50;70.01
32298;BME280;18782;48.984;8.548;2023-05-22T07:59:22;99617.09;;;21.46;70.16
32298;BME280;18782;48.984;8.548;2023-05-22T08:01:53;99627.41;;;21.52;69.90
32298;BME280;18782;48.984;8.548;2023-05-22T08:04:23;99628.41;;;21.47;68.47
32298;BME280;18782;48.984;8.548;2023-05-22T08:06:51;99624.47;;;21.30;70.04
32298;BME280;18782;48.984;8.548;2023-05-22T08:09:19;99619.19;;;21.32;70.50
32298;BME280;18782;48.984;8.548;2023-05-22T08:11:47;99623.56;;;21.31;70.06
32298;BME280;18782;48.984;8.548;2023-05-22T08:14:16;99624.31;;;21.35;69.50
32298;BME280;18782;48.984;8.548;2023-05-22T08:16:44;99633.97;;;21.33;68.69
32298;BME280;18782;48.984;8.548;2023-05-22T08:19:12;99631.34;;;21.33;69.14
32298;BME280;18782;48.984;8.548;2023-05-22T08:21:40;99631.78;;;21.52;68.60
32298;BME280;18782;48.984;8.548;2023-05-22T08:24:07;99619.50;;;21.54;67.97
32298;BME280;18782;48.984;8.548;2023-05-22T08:26:35;99621.94;;;21.61;69.45
32298;BME280;18782;48.984;8.548;2023-05-22T08:29:04;99621.56;;;21.75;69.72
32298;BME280;18782;48.984;8.548;2023-05-22T08:31:33;99617.50;;;21.96;67.01
32298;BME280;18782;48.984;8.548;2023-05-22T08:34:01;99618.91;;;22.08;66.50
32298;BME280;18782;48.984;8.548;2023-05-22T08:36:30;99616.13;;;22.16;66.85
32298;BME280;18782;48.984;8.548;2023-05-22T08:38:59;99619.94;;;22.35;67.46
32298;BME280;18782;48.984;8.548;2023-05-22T08:41:27;99618.13;;;22.37;65.47
32298;BME280;18782;48.984;8.548;2023-05-22T08:43:55;99610.91;;;22.45;66.07
32298;BME280;18782;48.984;8.548;2023-05-22T08:46:23;99619.75;;;22.41;65.11
32298;BME280;18782;48.984;8.548;2023-05-22T08:48:56;99620.81;;;22.35;66.27
32298;BME280;18782;48.984;8.548;2023-05-22T08:51:27;99623.44;;;22.34;66.23
32298;BME280;18782;48.984;8.548;2023-05-22T08:53:57;99616.59;;;22.30;66.48
32298;BME280;18782;48.984;8.548;2023-05-22T08:56:25;99613.16;;;22.28;66.89
32298;BME280;18782;48.984;8.548;2023-05-22T08:58:56;99611.38;;;22.28;68.09
32298;BME280;18782;48.984;8.548;2023-05-22T09:01:24;99614.25;;;22.50;67.16
32298;BME280;18782;48.984;8.548;2023-05-22T09:03:52;99604.16;;;22.66;66.98
32298;BME280;18782;48.984;8.548;2023-05-22T09:06:22;99604.56;;;22.82;67.40
32298;BME280;18782;48.984;8.548;2023-05-22T09:08:50;99605.25;;;22.88;66.96
32298;BME280;18782;48.984;8.548;2023-05-22T09:11:18;99611.97;;;22.67;65.00
32298;BME280;18782;48.984;8.548;2023-05-22T09:13:46;99614.19;;;22.81;64.99
32298;BME280;18782;48.984;8.548;2023-05-22T09:16:15;99612.38;;;22.83;65.39
32298;BME280;18782;48.984;8.548;2023-05-22T09:18:44;99607.81;;;22.90;65.90
32298;BME280;18782;48.984;8.548;2023-05-22T09:21:12;99611.53;;;23.11;64.37
32298;BME280;18782;48.984;8.548;2023-05-22T09:23:59;99612.38;;;23.11;64.58
32298;BME280;18782;48.984;8.548;2023-05-22T09:26:27;99609.53;;;23.19;65.24
32298;BME280;18782;48.984;8.548;2023-05-22T09:28:58;99613.84;;;23.20;62.21
32298;BME280;18782;48.984;8.548;2023-05-22T09:31:27;99605.31;;;23.13;63.07
32298;BME280;18782;48.984;8.548;2023-05-22T09:33:55;99610.13;;;23.27;62.05
32298;BME280;18782;48.984;8.548;2023-05-22T09:36:29;99610.16;;;23.26;62.96
32298;BME280;18782;48.984;8.548;2023-05-22T09:39:00;99608.16;;;23.34;63.19
32298;BME280;18782;48.984;8.548;2023-05-22T09:41:33;99596.09;;;23.53;63.07
32298;BME280;18782;48.984;8.548;2023-05-22T09:44:06;99604.03;;;23.78;62.89
32298;BME280;18782;48.984;8.548;2023-05-22T09:46:38;99596.38;;;24.20;63.36
32298;BME280;18782;48.984;8.548;2023-05-22T09:49:07;99597.47;;;24.62;61.66
32298;BME280;18782;48.984;8.548;2023-05-22T09:51:35;99615.81;;;24.87;59.10
32298;BME280;18782;48.984;8.548;2023-05-22T09:54:07;99604.00;;;24.97;58.88
32298;BME280;18782;48.984;8.548;2023-05-22T09:56:38;99605.94;;;24.92;58.22
32298;BME280;18782;48.984;8.548;2023-05-22T09:59:08;99596.44;;;25.11;58.78
32298;BME280;18782;48.984;8.548;2023-05-22T10:01:37;99610.38;;;24.91;58.11
32298;BME280;18782;48.984;8.548;2023-05-22T10:04:06;99596.44;;;25.11;57.93
32298;BME280;18782;48.984;8.548;2023-05-22T10:06:35;99596.44;;;25.11;58.75
32298;BME280;18782;48.984;8.548;2023-05-22T10:09:07;99597.38;;;25.31;59.23
32298;BME280;18782;48.984;8.548;2023-05-22T10:11:37;99600.66;;;25.36;57.01
32298;BME280;18782;48.984;8.548;2023-05-22T10:14:04;99597.94;;;25.59;57.38
32298;BME280;18782;48.984;8.548;2023-05-22T10:16:34;99594.88;;;25.68;55.70
32298;BME280;18782;48.984;8.548;2023-05-22T10:19:04;99592.66;;;25.59;56.03
32298;BME280;18782;48.984;8.548;2023-05-22T10:21:34;99590.91;;;25.80;56.20
32298;BME280;18782;48.984;8.548;2023-05-22T10:24:02;99589.63;;;25.89;55.84
32298;BME280;18782;48.984;8.548;2023-05-22T10:26:33;99597.41;;;25.71;54.87
32298;BME280;18782;48.984;8.548;2023-05-22T10:29:10;99603.03;;;25.42;55.91
32298;BME280;18782;48.984;8.548;2023-05-22T10:31:43;99590.66;;;25.23;57.32
32298;BME280;18782;48.984;8.548;2023-05-22T10:34:25;99584.50;;;25.45;57.05
32298;BME280;18782;48.984;8.548;2023-05-22T10:37:08;99574.25;;;25.80;58.93
32298;BME280;18782;48.984;8.548;2023-05-22T10:39:53;99566.31;;;26.00;53.97
32298;BME280;18782;48.984;8.548;2023-05-22T10:42:29;99571.06;;;25.92;55.00
32298;BME280;18782;48.984;8.548;2023-05-22T10:44:59;99573.16;;;25.84;54.78
32298;BME280;18782;48.984;8.548;2023-05-22T10:47:28;99569.06;;;25.56;53.52
32298;BME280;18782;48.984;8.548;2023-05-22T10:50:04;99556.28;;;25.47;53.41
32298;BME280;18782;48.984;8.548;2023-05-22T10:52:34;99560.09;;;25.40;53.71
32298;BME280;18782;48.984;8.548;2023-05-22T10:55:05;99559.19;;;25.61;53.51
32298;BME280;18782;48.984;8.548;2023-05-22T10:57:36;99556.34;;;25.66;52.66
32298;BME280;18782;48.984;8.548;2023-05-22T11:00:09;99558.00;;;25.89;53.98
32298;BME280;18782;48.984;8.548;2023-05-22T11:02:42;99563.53;;;25.83;52.09
32298;BME280;18782;48.984;8.548;2023-05-22T11:05:37;99558.16;;;25.86;52.57
32298;BME280;18782;48.984;8.548;2023-05-22T11:08:09;99557.88;;;25.92;52.73
32298;BME280;18782;48.984;8.548;2023-05-22T11:10:53;99550.72;;;25.75;52.86
32298;BME280;18782;48.984;8.548;2023-05-22T11:13:25;99551.59;;;25.94;53.97
32298;BME280;18782;48.984;8.548;2023-05-22T11:15:55;99542.50;;;26.20;52.80
32298;BME280;18782;48.984;8.548;2023-05-22T11:18:27;99535.44;;;26.40;52.73
32298;BME280;18782;48.984;8.548;2023-05-22T11:20:57;99530.88;;;26.62;52.03
32298;BME280;18782;48.984;8.548;2023-05-22T11:23:26;99536.78;;;26.67;50.86
32298;BME280;18782;48.984;8.548;2023-05-22T11:25:53;99530.19;;;26.95;51.47
32298;BME280;18782;48.984;8.548;2023-05-22T11:28:21;99525.13;;;26.90;50.68
32298;BME280;18782;48.984;8.548;2023-05-22T11:30:50;99525.69;;;27.14;50.96
32298;BME280;18782;48.984;8.548;2023-05-22T11:33:18;99525.09;;;27.26;49.70
32298;BME280;18782;48.984;8.548;2023-05-22T11:35:46;99526.47;;;27.34;51.38
32298;BME280;18782;48.984;8.548;2023-05-22T11:38:14;99517.81;;;27.82;49.22
32298;BME280;18782;48.984;8.548;2023-05-22T11:40:43;99514.06;;;28.19;49.76
32298;BME280;18782;48.984;8.548;2023-05-22T11:43:11;99515.94;;;28.49;47.29
32298;BME280;18782;48.984;8.548;2023-05-22T11:45:38;99513.63;;;28.74;48.91
32298;BME280;18782;48.984;8.548;2023-05-22T11:48:09;99505.81;;;29.03;46.99
32298;BME280;18782;48.984;8.548;2023-05-22T11:50:41;99501.53;;;29.30;44.41
32298;BME280;18782;48.984;8.548;2023-05-22T11:53:09;99500.59;;;29.31;43.19
32298;BME280;18782;48.984;8.548;2023-05-22T11:55:37;99492.38;;;29.50;43.61
32298;BME280;18782;48.984;8.548;2023-05-22T11:58:05;99501.59;;;29.73;42.28
32298;BME280;18782;48.984;8.548;2023-05-22T12:00:33;99490.88;;;29.75;41.08
32298;BME280;18782;48.984;8.548;2023-05-22T12:03:00;99488.00;;;30.06;41.10
32298;BME280;18782;48.984;8.548;2023-05-22T12:05:31;99495.72;;;29.97;41.97
32298;BME280;18782;48.984;8.548;2023-05-22T12:07:59;99490.41;;;30.25;41.35
32298;BME280;18782;48.984;8.548;2023-05-22T12:10:27;99486.03;;;30.38;42.00
32298;BME280;18782;48.984;8.548;2023-05-22T12:12:54;99482.59;;;30.36;41.73
32298;BME280;18782;48.984;8.548;2023-05-22T12:15:23;99503.84;;;30.36;41.89
32298;BME280;18782;48.984;8.548;2023-05-22T12:17:53;99502.03;;;30.64;41.65
32298;BME280;18782;48.984;8.548;2023-05-22T12:20:21;99505.09;;;30.72;42.03
32298;BME280;18782;48.984;8.548;2023-05-22T12:22:50;99495.63;;;30.54;40.92
32298;BME280;18782;48.984;8.548;2023-05-22T12:25:18;99498.41;;;30.38;41.83
32298;BME280;18782;48.984;8.548;2023-05-22T12:27:46;99496.47;;;29.99;40.35
32298;BME280;18782;48.984;8.548;2023-05-22T12:30:14;99500.84;;;30.14;42.84
32298;BME280;18782;48.984;8.548;2023-05-22T12:32:46;99502.25;;;30.20;41.76
32298;BME280;18782;48.984;8.548;2023-05-22T12:35:14;99498.75;;;30.05;41.20
32298;BME280;18782;48.984;8.548;2023-05-22T12:37:46;99502.13;;;30.07;41.11
32298;BME280;18782;48.984;8.548;2023-05-22T12:40:16;99491.47;;;30.23;41.29
32298;BME280;18782;48.984;8.548;2023-05-22T12:42:44;99485.75;;;30.70;41.43
32298;BME280;18782;48.984;8.548;2023-05-22T12:45:11;99490.66;;;30.76;40.91
32298;BME280;18782;48.984;8.548;2023-05-22T12:47:39;99496.22;;;31.64;37.57
32298;BME280;18782;48.984;8.548;2023-05-22T12:50:08;99501.41;;;32.04;36.37
32298;BME280;18782;48.984;8.548;2023-05-22T12:52:35;99489.22;;;32.38;35.87
32298;BME280;18782;48.984;8.548;2023-05-22T12:55:04;99486.72;;;32.71;35.95
32298;BME280;18782;48.984;8.548;2023-05-22T12:57:33;99484.75;;;33.33;35.14
32298;BME280;18782;48.984;8.548;2023-05-22T13:00:00;99485.41;;;32.77;35.98
32298;BME280;18782;48.984;8.548;2023-05-22T13:02:28;99475.00;;;32.74;36.40
32298;BME280;18782;48.984;8.548;2023-05-22T13:04:56;99467.72;;;32.76;36.57
32298;BME280;18782;48.984;8.548;2023-05-22T13:07:24;99458.16;;;32.50;36.99
32298;BME280;18782;48.984;8.548;2023-05-22T13:09:52;99461.59;;;31.89;36.76
32298;BME280;18782;48.984;8.548;2023-05-22T13:12:19;99454.97;;;31.06;39.14
32298;BME280;18782;48.984;8.548;2023-05-22T13:14:48;99449.66;;;30.66;40.83
32298;BME280;18782;48.984;8.548;2023-05-22T13:17:16;99444.81;;;30.46;40.10
32298;BME280;18782;48.984;8.548;2023-05-22T13:19:44;99447.97;;;31.05;40.32
32298;BME280;18782;48.984;8.548;2023-05-22T13:22:11;99443.91;;;30.99;38.94